createdAt,value
2018-01-26T00:00:24.697Z,83.22
2018-01-26T00:01:05.240Z,83.31
2018-01-26T00:01:45.790Z,83.6
2018-01-26T00:02:26.430Z,83.12
2018-01-26T00:03:06.980Z,83.31
2018-01-26T00:03:47.524Z,83.5
2018-01-26T00:04:28.061Z,83.12
2018-01-26T00:05:08.576Z,83.4
2018-01-26T00:05:49.141Z,83.03
2018-01-26T00:06:29.694Z,84.08
2018-01-26T00:07:10.263Z,83.31
2018-01-26T00:07:50.824Z,83.31
2018-01-26T00:08:31.422Z,83.4
2018-01-26T00:09:12.041Z,83.69
2018-01-26T00:09:52.573Z,83.31
2018-01-26T00:10:33.149Z,83.22
2018-01-26T00:11:13.695Z,83.31
2018-01-26T00:11:54.256Z,83.89
2018-01-26T00:12:34.760Z,83.31
2018-01-26T00:13:15.319Z,83.22
2018-01-26T00:13:55.880Z,82.93
2018-01-26T00:14:36.387Z,83.4
2018-01-26T00:15:16.945Z,82.93
2018-01-26T00:15:57.511Z,83.6
2018-01-26T00:16:38.070Z,83.6
2018-01-26T00:17:18.681Z,83.6
2018-01-26T00:17:59.175Z,83.69
2018-01-26T00:18:39.714Z,83.69
2018-01-26T00:19:20.276Z,83.69
2018-01-26T00:20:00.848Z,83.5
2018-01-26T00:20:41.377Z,83.5
2018-01-26T00:21:21.931Z,83.12
2018-01-26T00:22:02.466Z,83.31
2018-01-26T00:22:43.036Z,83.12
2018-01-26T00:23:23.586Z,83.22
2018-01-26T00:24:04.076Z,82.83
2018-01-26T00:24:44.647Z,83.4
2018-01-26T00:25:25.176Z,83.03
2018-01-26T00:26:05.749Z,82.74
2018-01-26T00:26:46.278Z,82.74
2018-01-26T00:27:26.837Z,82.83
2018-01-26T00:28:07.427Z,82.74
2018-01-26T00:28:48.006Z,82.74
2018-01-26T00:29:28.547Z,82.26
2018-01-26T00:30:09.180Z,81.49
2018-01-26T00:30:49.762Z,81.78
2018-01-26T00:31:30.344Z,81.59
2018-01-26T00:32:10.856Z,81.4
2018-01-26T00:32:51.410Z,81.68
2018-01-26T00:33:31.956Z,81.49
2018-01-26T00:34:12.491Z,81.49
2018-01-26T00:34:53.061Z,80.69
2018-01-26T00:35:33.643Z,80.54
2018-01-26T00:36:14.172Z,80.21
2018-01-26T00:36:54.706Z,80.25
2018-01-26T00:37:35.266Z,80.4
2018-01-26T00:38:15.842Z,80.25
2018-01-26T00:38:56.381Z,79.68
2018-01-26T00:39:36.963Z,79.49
2018-01-26T00:40:17.529Z,79.35
2018-01-26T00:40:58.081Z,78.78
2018-01-26T00:41:38.626Z,79.16
2018-01-26T00:42:19.198Z,79.25
2018-01-26T00:42:59.762Z,79.54
2018-01-26T00:43:40.327Z,79.64
2018-01-26T00:44:20.902Z,80.21
2018-01-26T00:45:01.447Z,79.64
2018-01-26T00:45:42.016Z,80.21
2018-01-26T00:46:22.564Z,80.69
2018-01-26T00:47:03.110Z,81.55
2018-01-26T00:47:43.665Z,81.16
2018-01-26T00:48:24.219Z,81.36
2018-01-26T00:49:04.773Z,80.98
2018-01-26T00:49:45.312Z,81.45
2018-01-26T00:50:25.904Z,81.45
2018-01-26T00:51:06.412Z,81.55
2018-01-26T00:51:47.005Z,81.55
2018-01-26T00:52:27.549Z,82.12
2018-01-26T00:53:08.097Z,81.74
2018-01-26T00:53:48.647Z,81.84
2018-01-26T00:54:29.204Z,82.03
2018-01-26T00:55:09.745Z,81.84
2018-01-26T00:55:50.310Z,82.22
2018-01-26T00:56:30.844Z,82.31
2018-01-26T00:57:11.386Z,82.89
2018-01-26T00:57:51.946Z,82.6
2018-01-26T00:58:32.500Z,83.17
2018-01-26T00:59:13.065Z,82.98
2018-01-26T00:59:53.607Z,83.37
2018-01-26T01:00:34.164Z,83.17
2018-01-26T01:01:14.709Z,83.37
2018-01-26T01:01:55.283Z,83.23
2018-01-26T01:02:35.831Z,83.84
2018-01-26T01:03:16.412Z,82.98
2018-01-26T01:03:56.971Z,84.52
2018-01-26T01:04:37.526Z,83.9
2018-01-26T01:05:18.089Z,84.28
2018-01-26T01:05:58.636Z,84.61
2018-01-26T01:06:39.192Z,84.42
2018-01-26T01:07:19.762Z,84.61
2018-01-26T01:08:00.335Z,83.84
2018-01-26T01:08:40.857Z,83.84
2018-01-26T01:09:21.439Z,83.75
2018-01-26T01:10:01.999Z,84.19
2018-01-26T01:10:42.538Z,84.56
2018-01-26T01:11:23.078Z,84.28
2018-01-26T01:12:03.648Z,84.03
2018-01-26T01:12:44.153Z,83.7
2018-01-26T01:13:24.727Z,83.7
2018-01-26T01:14:05.246Z,84.13
2018-01-26T01:14:45.890Z,83.8
2018-01-26T01:15:26.482Z,84.13
2018-01-26T01:16:07.027Z,83.56
2018-01-26T01:16:47.584Z,83.94
2018-01-26T01:17:28.112Z,83.56
2018-01-26T01:18:08.690Z,84.23
2018-01-26T01:18:49.229Z,84.23
2018-01-26T01:19:29.784Z,83.84
2018-01-26T01:20:10.340Z,83.75
2018-01-26T01:20:50.896Z,83.94
2018-01-26T01:21:31.439Z,83.17
2018-01-26T01:22:11.974Z,83.56
2018-01-26T01:22:52.525Z,83.17
2018-01-26T01:23:33.088Z,82.79
2018-01-26T01:24:13.656Z,83.65
2018-01-26T01:24:54.201Z,83.65
2018-01-26T01:25:34.739Z,83.65
2018-01-26T01:26:15.267Z,83.65
2018-01-26T01:26:55.834Z,83.65
2018-01-26T01:27:36.373Z,83.84
2018-01-26T01:28:16.960Z,83.75
2018-01-26T01:28:57.494Z,84.61
2018-01-26T01:29:38.049Z,84.23
2018-01-26T01:30:18.582Z,84.99
2018-01-26T01:30:59.142Z,84.8
2018-01-26T01:31:39.712Z,84.99
2018-01-26T01:32:20.309Z,85.28
2018-01-26T01:33:00.855Z,84.89
2018-01-26T01:33:41.407Z,84.89
2018-01-26T01:34:21.979Z,84.8
2018-01-26T01:35:02.513Z,85.42
2018-01-26T01:35:43.037Z,85.47
2018-01-26T01:36:23.608Z,85.47
2018-01-26T01:37:04.188Z,85.85
2018-01-26T01:37:44.704Z,85.94
2018-01-26T01:38:25.283Z,86.23
2018-01-26T01:39:05.768Z,85.9
2018-01-26T01:39:46.343Z,86.19
2018-01-26T01:40:26.906Z,86.38
2018-01-26T01:41:07.448Z,86.38
2018-01-26T01:41:47.992Z,86.57
2018-01-26T01:42:28.529Z,86.67
2018-01-26T01:43:09.078Z,86.86
2018-01-26T01:43:49.641Z,86.76
2018-01-26T01:44:30.176Z,86.96
2018-01-26T01:45:10.711Z,86.8
2018-01-26T01:45:51.242Z,86.71
2018-01-26T01:46:31.780Z,86.52
2018-01-26T01:47:12.313Z,86.71
2018-01-26T01:47:52.855Z,86.9
2018-01-26T01:48:33.402Z,87.48
2018-01-26T01:49:13.929Z,87.38
2018-01-26T01:49:54.478Z,87.29
2018-01-26T01:50:35.011Z,87.09
2018-01-26T01:51:15.578Z,87.38
2018-01-26T01:51:56.117Z,87.38
2018-01-26T01:52:36.631Z,87.38
2018-01-26T01:53:17.166Z,87.38
2018-01-26T01:53:57.720Z,87.43
2018-01-26T01:54:38.297Z,88.39
2018-01-26T01:55:18.900Z,88.58
2018-01-26T01:55:59.398Z,88.48
2018-01-26T01:56:39.943Z,88.58
2018-01-26T01:57:20.471Z,88.68
2018-01-26T01:58:01.013Z,88.48
2018-01-26T01:58:41.552Z,88.48
2018-01-26T01:59:22.116Z,88.58
2018-01-26T02:00:02.659Z,88.96
2018-01-26T02:00:43.209Z,88.96
2018-01-26T02:01:23.760Z,88.77
2018-01-26T02:02:04.305Z,88.48
2018-01-26T02:02:44.868Z,88.87
2018-01-26T02:03:25.423Z,89.15
2018-01-26T02:04:05.979Z,88.96
2018-01-26T02:04:46.531Z,89.39
2018-01-26T02:05:27.071Z,89.53
2018-01-26T02:06:07.645Z,89.44
2018-01-26T02:06:48.139Z,89.73
2018-01-26T02:07:28.675Z,89.63
2018-01-26T02:08:09.239Z,88.96
2018-01-26T02:08:49.767Z,88.68
2018-01-26T02:09:30.309Z,88.87
2018-01-26T02:10:10.853Z,88.58
2018-01-26T02:10:51.438Z,88.96
2018-01-26T02:11:31.979Z,89.34
2018-01-26T02:12:12.546Z,89.53
2018-01-26T02:12:53.047Z,89.63
2018-01-26T02:13:33.581Z,89.25
2018-01-26T02:14:14.135Z,88.87
2018-01-26T02:14:54.672Z,88.96
2018-01-26T02:15:35.196Z,88.87
2018-01-26T02:16:15.739Z,89.34
2018-01-26T02:16:56.269Z,89.92
2018-01-26T02:17:36.844Z,89.53
2018-01-26T02:18:17.396Z,90.2
2018-01-26T02:18:58.035Z,89.15
2018-01-26T02:19:38.477Z,89.44
2018-01-26T02:20:19.029Z,89.44
2018-01-26T02:20:59.554Z,88.96
2018-01-26T02:21:40.097Z,89.06
2018-01-26T02:22:20.637Z,89.34
2018-01-26T02:23:01.196Z,89.63
2018-01-26T02:23:41.753Z,89.63
2018-01-26T02:24:22.302Z,89.25
2018-01-26T02:25:02.873Z,89.34
2018-01-26T02:25:43.455Z,89.34
2018-01-26T02:26:24.007Z,89.53
2018-01-26T02:27:04.551Z,89.53
2018-01-26T02:27:45.124Z,89.92
2018-01-26T02:28:25.677Z,90.45
2018-01-26T02:29:06.243Z,90.64
2018-01-26T02:29:46.810Z,90.25
2018-01-26T02:30:27.459Z,90.35
2018-01-26T02:31:07.949Z,90.54
2018-01-26T02:31:48.508Z,90.25
2018-01-26T02:32:29.058Z,89.97
2018-01-26T02:33:09.630Z,90.25
2018-01-26T02:33:50.179Z,90.45
2018-01-26T02:34:32.825Z,91.21
2018-01-26T02:35:12.313Z,91.02
2018-01-26T02:35:52.819Z,91.21
2018-01-26T02:36:33.387Z,91.21
2018-01-26T02:37:13.920Z,91.59
2018-01-26T02:37:54.457Z,91.97
2018-01-26T02:38:35.014Z,91.78
2018-01-26T02:39:15.594Z,91.78
2018-01-26T02:39:56.124Z,91.02
2018-01-26T02:40:36.688Z,91.11
2018-01-26T02:41:17.354Z,91.06
2018-01-26T02:41:57.886Z,90.88
2018-01-26T02:42:38.484Z,90.11
2018-01-26T02:43:19.006Z,90.49
2018-01-26T02:43:59.562Z,90.49
2018-01-26T02:44:40.142Z,90.01
2018-01-26T02:45:20.628Z,90.2
2018-01-26T02:46:01.180Z,90.3
2018-01-26T02:46:41.723Z,90.39
2018-01-26T02:47:22.279Z,89.82
2018-01-26T02:48:02.828Z,90.01
2018-01-26T02:48:43.368Z,89.34
2018-01-26T02:49:24.003Z,89.53
2018-01-26T02:50:04.556Z,90.01
2018-01-26T02:50:45.076Z,89.92
2018-01-26T02:51:25.633Z,90.11
2018-01-26T02:52:06.183Z,90.3
2018-01-26T02:52:46.727Z,90.3
2018-01-26T02:53:27.282Z,91.06
2018-01-26T02:54:07.844Z,90.59
2018-01-26T02:54:48.436Z,90.3
2018-01-26T02:55:28.981Z,90.39
2018-01-26T02:56:09.517Z,90.39
2018-01-26T02:56:50.053Z,90.49
2018-01-26T02:57:30.601Z,90.68
2018-01-26T02:58:11.167Z,90.68
2018-01-26T02:58:51.739Z,90.11
2018-01-26T02:59:32.289Z,90.11
2018-01-26T03:00:12.858Z,89.82
2018-01-26T03:00:53.438Z,90.06
2018-01-26T03:01:34.016Z,89.73
2018-01-26T03:02:14.576Z,90.01
2018-01-26T03:02:55.146Z,89.92
2018-01-26T03:03:35.680Z,90.2
2018-01-26T03:04:16.246Z,90.3
2018-01-26T03:04:56.761Z,90.49
2018-01-26T03:05:37.303Z,90.39
2018-01-26T03:06:17.896Z,90.68
2018-01-26T03:06:58.429Z,90.97
2018-01-26T03:07:39.018Z,90.2
2018-01-26T03:08:19.542Z,90.39
2018-01-26T03:09:00.109Z,90.3
2018-01-26T03:09:40.626Z,90.68
2018-01-26T03:10:21.181Z,89.92
2018-01-26T03:11:01.747Z,90.01
2018-01-26T03:11:42.290Z,90.49
2018-01-26T03:12:22.847Z,91.06
2018-01-26T03:13:03.376Z,90.97
2018-01-26T03:13:43.921Z,90.49
2018-01-26T03:14:24.472Z,90.01
2018-01-26T03:15:05.019Z,90.35
2018-01-26T03:15:45.609Z,90.83
2018-01-26T03:16:26.127Z,90.92
2018-01-26T03:17:06.686Z,90.92
2018-01-26T03:17:47.230Z,91.69
2018-01-26T03:18:27.771Z,90.83
2018-01-26T03:19:08.337Z,91.59
2018-01-26T03:19:48.877Z,91.88
2018-01-26T03:20:29.433Z,92.36
2018-01-26T03:21:09.965Z,92.16
2018-01-26T03:21:50.493Z,92.74
2018-01-26T03:22:31.042Z,92.83
2018-01-26T03:23:11.575Z,92.74
2018-01-26T03:23:52.136Z,92.36
2018-01-26T03:24:32.648Z,93.02
2018-01-26T03:25:13.217Z,93.12
2018-01-26T03:25:53.748Z,92.36
2018-01-26T03:26:34.286Z,92.55
2018-01-26T03:27:14.831Z,92.26
2018-01-26T03:27:55.417Z,92.16
2018-01-26T03:28:35.984Z,92.55
2018-01-26T03:29:16.608Z,92.45
2018-01-26T03:29:57.131Z,92.26
2018-01-26T03:30:37.706Z,92.83
2018-01-26T03:31:18.271Z,92.45
2018-01-26T03:31:58.810Z,92.93
2018-01-26T03:32:39.362Z,93.07
2018-01-26T03:33:19.904Z,93.65
2018-01-26T03:34:00.457Z,93.79
2018-01-26T03:34:40.970Z,93.41
2018-01-26T03:35:21.524Z,93.79
2018-01-26T03:36:02.095Z,93.21
2018-01-26T03:36:42.665Z,93.21
2018-01-26T03:37:23.202Z,93.31
2018-01-26T03:38:03.754Z,92.83
2018-01-26T03:38:44.318Z,93.7
2018-01-26T03:39:24.857Z,93.31
2018-01-26T03:40:05.414Z,93.79
2018-01-26T03:40:45.962Z,93.6
2018-01-26T03:41:26.515Z,93.5
2018-01-26T03:42:07.068Z,93.5
2018-01-26T03:42:47.621Z,93.31
2018-01-26T03:43:28.146Z,92.64
2018-01-26T03:44:08.703Z,92.55
2018-01-26T03:44:49.305Z,93.31
2018-01-26T03:45:29.799Z,93.6
2018-01-26T03:46:10.280Z,93.79
2018-01-26T03:46:50.854Z,93.31
2018-01-26T03:47:31.414Z,93.02
2018-01-26T03:48:11.968Z,92.74
2018-01-26T03:48:52.520Z,92.93
2018-01-26T03:49:33.063Z,92.26
2018-01-26T03:50:13.594Z,92.16
2018-01-26T03:50:54.143Z,91.88
2018-01-26T03:51:34.675Z,91.97
2018-01-26T03:52:15.249Z,92.45
2018-01-26T03:52:55.767Z,93.12
2018-01-26T03:53:36.290Z,92.93
2018-01-26T03:54:16.855Z,92.64
2018-01-26T03:54:57.387Z,93.02
2018-01-26T03:55:37.926Z,93.31
2018-01-26T03:56:18.490Z,93.17
2018-01-26T03:56:59.031Z,92.64
2018-01-26T03:57:39.580Z,93.12
2018-01-26T03:58:20.122Z,92.5
2018-01-26T03:59:00.671Z,93.46
2018-01-26T03:59:41.265Z,93.55
2018-01-26T04:00:21.754Z,93.31
2018-01-26T04:01:02.341Z,93.88
2018-01-26T04:01:42.905Z,93.21
2018-01-26T04:02:23.446Z,92.93
2018-01-26T04:03:04.014Z,92.93
2018-01-26T04:03:44.548Z,92.36
2018-01-26T04:04:25.095Z,92.45
2018-01-26T04:05:05.648Z,91.88
2018-01-26T04:05:46.158Z,92.74
2018-01-26T04:06:26.749Z,92.64
2018-01-26T04:07:07.254Z,92.83
2018-01-26T04:07:47.784Z,92.26
2018-01-26T04:08:28.399Z,92.83
2018-01-26T04:09:08.921Z,92.55
2018-01-26T04:09:49.437Z,93.17
2018-01-26T04:10:29.956Z,93.88
2018-01-26T04:11:10.503Z,93.6
2018-01-26T04:11:51.037Z,93.31
2018-01-26T04:12:31.590Z,93.41
2018-01-26T04:13:12.141Z,92.55
2018-01-26T04:13:52.745Z,92.5
2018-01-26T04:14:33.255Z,92.88
2018-01-26T04:15:13.789Z,93.26
2018-01-26T04:15:54.298Z,93.55
2018-01-26T04:16:34.879Z,93.55
2018-01-26T04:17:15.393Z,93.65
2018-01-26T04:17:55.915Z,93.46
2018-01-26T04:18:36.433Z,93.46
2018-01-26T04:19:17.014Z,93.17
2018-01-26T04:19:57.541Z,93.26
2018-01-26T04:20:38.038Z,93.65
2018-01-26T04:21:18.595Z,93.46
2018-01-26T04:21:59.126Z,93.55
2018-01-26T04:22:39.653Z,93.07
2018-01-26T04:23:20.191Z,93.36
2018-01-26T04:24:00.737Z,93.17
2018-01-26T04:24:41.280Z,92.69
2018-01-26T04:25:21.841Z,93.31
2018-01-26T04:26:02.395Z,92.93
2018-01-26T04:26:42.944Z,93.02
2018-01-26T04:27:23.508Z,92.83
2018-01-26T04:28:04.006Z,92.16
2018-01-26T04:28:44.569Z,92.16
2018-01-26T04:29:25.090Z,92.26
2018-01-26T04:30:05.642Z,92.55
2018-01-26T04:30:46.146Z,92.36
2018-01-26T04:31:26.787Z,92.74
2018-01-26T04:32:07.333Z,91.97
2018-01-26T04:32:47.892Z,91.88
2018-01-26T04:33:28.411Z,92.16
2018-01-26T04:34:08.955Z,92.16
2018-01-26T04:34:49.490Z,92.74
2018-01-26T04:35:30.057Z,91.88
2018-01-26T04:36:10.562Z,92.74
2018-01-26T04:36:51.083Z,92.74
2018-01-26T04:37:31.622Z,92.74
2018-01-26T04:38:12.184Z,92.83
2018-01-26T04:38:52.715Z,92.55
2018-01-26T04:39:33.265Z,92.64
2018-01-26T04:40:13.807Z,92.55
2018-01-26T04:40:54.351Z,92.45
2018-01-26T04:41:34.908Z,91.97
2018-01-26T04:42:15.487Z,92.26
2018-01-26T04:42:56.024Z,91.59
2018-01-26T04:43:36.538Z,91.88
2018-01-26T04:44:17.090Z,92.64
2018-01-26T04:44:57.645Z,92.93
2018-01-26T04:45:38.141Z,93.02
2018-01-26T04:46:18.710Z,92.55
2018-01-26T04:46:59.247Z,92.64
2018-01-26T04:47:39.803Z,92.55
2018-01-26T04:48:20.330Z,92.55
2018-01-26T04:49:00.867Z,92.26
2018-01-26T04:49:41.418Z,93.02
2018-01-26T04:50:21.972Z,92.55
2018-01-26T04:51:02.539Z,92.45
2018-01-26T04:51:43.077Z,92.36
2018-01-26T04:52:23.599Z,92.26
2018-01-26T04:53:04.107Z,91.88
2018-01-26T04:53:44.628Z,91.97
2018-01-26T04:54:25.184Z,91.97
2018-01-26T04:55:05.715Z,92.36
2018-01-26T04:55:46.282Z,92.16
2018-01-26T04:56:26.906Z,92.26
2018-01-26T04:57:07.396Z,91.5
2018-01-26T04:57:47.951Z,91.88
2018-01-26T04:58:28.556Z,92.69
2018-01-26T04:59:09.087Z,92.31
2018-01-26T04:59:49.673Z,92.55
2018-01-26T05:00:30.214Z,92.45
2018-01-26T05:01:10.747Z,92.74
2018-01-26T05:01:51.271Z,92.83
2018-01-26T05:02:31.816Z,92.16
2018-01-26T05:03:12.348Z,92.07
2018-01-26T05:03:52.916Z,91.97
2018-01-26T05:04:33.499Z,91.97
2018-01-26T05:05:14.041Z,91.78
2018-01-26T05:05:54.576Z,91.93
2018-01-26T05:06:35.166Z,92.69
2018-01-26T05:07:15.661Z,92.41
2018-01-26T05:07:56.205Z,92.55
2018-01-26T05:08:36.741Z,92.16
2018-01-26T05:09:17.279Z,92.36
2018-01-26T05:09:57.840Z,92.55
2018-01-26T05:10:38.333Z,92.26
2018-01-26T05:11:18.852Z,92.55
2018-01-26T05:11:59.375Z,92.45
2018-01-26T05:12:39.935Z,91.88
2018-01-26T05:13:20.460Z,91.88
2018-01-26T05:14:01.004Z,91.4
2018-01-26T05:14:41.537Z,91.4
2018-01-26T05:15:22.060Z,91.78
2018-01-26T05:16:02.629Z,92.26
2018-01-26T05:16:43.173Z,92.16
2018-01-26T05:17:23.714Z,92.45
2018-01-26T05:18:04.252Z,92.26
2018-01-26T05:18:44.796Z,92.36
2018-01-26T05:19:25.333Z,92.26
2018-01-26T05:20:05.886Z,91.88
2018-01-26T05:20:46.459Z,91.88
2018-01-26T05:21:26.998Z,92.26
2018-01-26T05:22:07.570Z,91.88
2018-01-26T05:22:48.122Z,92.07
2018-01-26T05:23:28.663Z,91.78
2018-01-26T05:24:09.203Z,91.4
2018-01-26T05:24:49.721Z,91.69
2018-01-26T05:25:30.297Z,92.02
2018-01-26T05:26:10.838Z,92.5
2018-01-26T05:26:51.427Z,92.88
2018-01-26T05:27:31.934Z,93.02
2018-01-26T05:28:12.444Z,92.93
2018-01-26T05:28:52.998Z,92.55
2018-01-26T05:29:33.547Z,92.55
2018-01-26T05:30:14.158Z,91.83
2018-01-26T05:30:54.651Z,92.21
2018-01-26T05:31:35.186Z,92.02
2018-01-26T05:32:15.761Z,92.31
2018-01-26T05:32:56.283Z,92.45
2018-01-26T05:33:36.815Z,92.26
2018-01-26T05:34:17.384Z,91.74
2018-01-26T05:34:57.929Z,92.41
2018-01-26T05:35:38.500Z,92.5
2018-01-26T05:36:19.037Z,92.69
2018-01-26T05:36:59.594Z,92.97
2018-01-26T05:37:40.177Z,92.88
2018-01-26T05:38:20.685Z,92.41
2018-01-26T05:39:01.290Z,92.97
2018-01-26T05:39:41.801Z,92.5
2018-01-26T05:40:22.367Z,92.41
2018-01-26T05:41:02.932Z,92.79
2018-01-26T05:41:43.452Z,93.07
2018-01-26T05:42:23.997Z,93.12
2018-01-26T05:43:04.541Z,93.98
2018-01-26T05:43:45.104Z,94.22
2018-01-26T05:44:25.650Z,93.84
2018-01-26T05:45:06.192Z,93.65
2018-01-26T05:45:46.755Z,93.65
2018-01-26T05:46:27.297Z,93.36
2018-01-26T05:47:07.856Z,93.55
2018-01-26T05:47:48.407Z,93.65
2018-01-26T05:48:28.961Z,93.65
2018-01-26T05:49:09.504Z,93.17
2018-01-26T05:49:50.086Z,94.12
2018-01-26T05:50:30.632Z,93.93
2018-01-26T05:51:11.156Z,94.12
2018-01-26T05:51:51.702Z,94.12
2018-01-26T05:52:32.267Z,93.17
2018-01-26T05:53:12.760Z,93.46
2018-01-26T05:53:53.330Z,93.17
2018-01-26T05:54:33.885Z,92.97
2018-01-26T05:55:14.429Z,92.88
2018-01-26T05:55:54.994Z,93.17
2018-01-26T05:56:35.565Z,92.5
2018-01-26T05:57:16.114Z,93.07
2018-01-26T05:57:56.627Z,93.07
2018-01-26T05:58:37.171Z,93.07
2018-01-26T05:59:17.702Z,92.6
2018-01-26T05:59:58.261Z,92.55
2018-01-26T06:00:38.855Z,92.5
2018-01-26T06:01:19.373Z,92.36
2018-01-26T06:01:59.941Z,92.45
2018-01-26T06:02:40.480Z,92.26
2018-01-26T06:03:21.048Z,91.97
2018-01-26T06:04:01.582Z,91.93
2018-01-26T06:04:42.128Z,92.5
2018-01-26T06:05:22.698Z,92.5
2018-01-26T06:06:03.276Z,92.41
2018-01-26T06:06:43.794Z,92.41
2018-01-26T06:07:24.351Z,92.02
2018-01-26T06:08:04.960Z,91.97
2018-01-26T06:08:45.534Z,91.74
2018-01-26T06:09:26.097Z,91.88
2018-01-26T06:10:06.637Z,91.97
2018-01-26T06:10:47.190Z,91.3
2018-01-26T06:11:27.767Z,91.36
2018-01-26T06:12:08.321Z,91.78
2018-01-26T06:12:48.858Z,91.59
2018-01-26T06:13:29.432Z,91.5
2018-01-26T06:14:10.016Z,91.59
2018-01-26T06:14:50.556Z,91.59
2018-01-26T06:15:31.092Z,91.88
2018-01-26T06:16:11.634Z,90.73
2018-01-26T06:16:52.187Z,91.59
2018-01-26T06:17:32.809Z,91.4
2018-01-26T06:18:13.267Z,91.11
2018-01-26T06:18:53.855Z,91.88
2018-01-26T06:19:34.369Z,91.21
2018-01-26T06:20:14.922Z,92.26
2018-01-26T06:20:55.474Z,92.55
2018-01-26T06:21:36.042Z,92.36
2018-01-26T06:22:16.590Z,92.45
2018-01-26T06:22:57.155Z,92.16
2018-01-26T06:23:37.727Z,92.55
2018-01-26T06:24:18.235Z,91.97
2018-01-26T06:24:58.879Z,91.5
2018-01-26T06:25:39.414Z,91.21
2018-01-26T06:26:19.973Z,91.5
2018-01-26T06:27:00.521Z,91.5
2018-01-26T06:27:41.029Z,91.02
2018-01-26T06:28:21.647Z,90.54
2018-01-26T06:29:02.144Z,90.92
2018-01-26T06:29:42.722Z,91.78
2018-01-26T06:30:23.279Z,91.97
2018-01-26T06:31:03.830Z,91.59
2018-01-26T06:31:44.326Z,91.97
2018-01-26T06:32:24.874Z,92.07
2018-01-26T06:33:05.425Z,91.3
2018-01-26T06:33:46.007Z,90.25
2018-01-26T06:34:26.562Z,89.87
2018-01-26T06:35:07.082Z,90.45
2018-01-26T06:35:47.642Z,90.83
2018-01-26T06:36:28.220Z,91.93
2018-01-26T06:37:08.770Z,90.45
2018-01-26T06:37:49.328Z,90.06
2018-01-26T06:38:29.867Z,90.25
2018-01-26T06:39:10.388Z,90.73
2018-01-26T06:39:50.926Z,90.64
2018-01-26T06:40:31.478Z,90.64
2018-01-26T06:41:12.017Z,90.54
2018-01-26T06:41:52.541Z,92.26
2018-01-26T06:42:33.093Z,91.4
2018-01-26T06:43:13.623Z,91.02
2018-01-26T06:43:54.159Z,89.59
2018-01-26T06:44:34.690Z,89.78
2018-01-26T06:45:15.241Z,89.78
2018-01-26T06:45:55.785Z,90.54
2018-01-26T06:46:36.350Z,91.3
2018-01-26T06:47:16.916Z,91.88
2018-01-26T06:47:57.466Z,91.59
2018-01-26T06:48:38.027Z,91.78
2018-01-26T06:49:18.563Z,92.83
2018-01-26T06:49:59.122Z,92.5
2018-01-26T06:50:39.701Z,92.88
2018-01-26T06:51:20.265Z,91.83
2018-01-26T06:52:00.798Z,90.64
2018-01-26T06:52:41.350Z,90.54
2018-01-26T06:53:21.909Z,90.06
2018-01-26T06:54:02.455Z,90.16
2018-01-26T06:54:43.938Z,90.16
2018-01-26T06:55:23.562Z,90.45
2018-01-26T06:56:04.099Z,90.92
2018-01-26T06:56:44.669Z,90.88
2018-01-26T06:57:25.254Z,90.88
2018-01-26T06:58:05.786Z,91.06
2018-01-26T06:58:46.306Z,90.39
2018-01-26T06:59:26.863Z,91.06
2018-01-26T07:00:07.415Z,90.78
2018-01-26T07:00:47.954Z,90.88
2018-01-26T07:01:28.515Z,90.78
2018-01-26T07:02:09.060Z,90.97
2018-01-26T07:02:49.628Z,90.97
2018-01-26T07:03:30.149Z,92.59
2018-01-26T07:04:10.693Z,99.99
2018-01-26T07:04:51.225Z,99.99
2018-01-26T07:05:31.725Z,99.99
2018-01-26T07:06:12.265Z,99.99
2018-01-26T07:06:52.813Z,99.99
2018-01-26T07:07:33.372Z,99.99
2018-01-26T07:08:13.918Z,99.99
2018-01-26T07:08:54.468Z,99.99
2018-01-26T07:09:35.029Z,99.99
2018-01-26T07:10:15.672Z,99.99
2018-01-26T07:10:56.223Z,98.99
2018-01-26T07:11:36.781Z,96.89
2018-01-26T07:12:17.333Z,95.56
2018-01-26T07:12:57.874Z,93.65
2018-01-26T07:13:38.425Z,92.59
2018-01-26T07:14:18.992Z,92.69
2018-01-26T07:14:59.556Z,92.07
2018-01-26T07:15:40.105Z,92.02
2018-01-26T07:16:20.714Z,93.36
2018-01-26T07:17:01.488Z,99.99
2018-01-26T07:17:42.020Z,99.99
2018-01-26T07:18:22.629Z,99.99
2018-01-26T07:19:03.190Z,99.99
2018-01-26T07:19:43.747Z,99.99
2018-01-26T07:20:24.302Z,99.99
2018-01-26T07:21:04.871Z,99.99
2018-01-26T07:21:45.418Z,99.99
2018-01-26T07:22:25.993Z,99.99
2018-01-26T07:23:06.533Z,99.99
2018-01-26T07:23:47.094Z,99.99
2018-01-26T07:24:27.659Z,99.99
2018-01-26T07:25:08.212Z,99.99
2018-01-26T07:25:48.779Z,99.99
2018-01-26T07:26:29.329Z,99.99
2018-01-26T07:27:09.921Z,99.99
2018-01-26T07:27:50.536Z,99.99
2018-01-26T07:28:31.114Z,99.99
2018-01-26T07:29:11.683Z,99.99
2018-01-26T07:29:52.206Z,99.99
2018-01-26T07:30:32.731Z,98.23
2018-01-26T07:31:13.313Z,96.99
2018-01-26T07:32:40.048Z,93.02
2018-01-26T07:33:20.591Z,91.88
2018-01-26T07:34:01.157Z,99.99
2018-01-26T07:34:41.701Z,99.99
2018-01-26T07:35:22.224Z,99.99
2018-01-26T07:36:02.785Z,99.99
2018-01-26T07:36:43.336Z,99.99
2018-01-26T07:37:23.886Z,99.99
2018-01-26T07:38:04.397Z,99.99
2018-01-26T07:38:44.898Z,99.99
2018-01-26T07:39:25.498Z,99.99
2018-01-26T07:40:06.014Z,99.99
2018-01-26T07:40:46.560Z,97.32
2018-01-26T07:41:27.130Z,96.17
2018-01-26T07:42:07.701Z,94.27
2018-01-26T07:42:48.262Z,91.97
2018-01-26T07:43:28.841Z,91.21
2018-01-26T07:44:09.983Z,88.73
2018-01-26T07:46:14.269Z,86.96
2018-01-26T07:46:54.810Z,87.2
2018-01-26T07:47:35.377Z,87.01
2018-01-26T07:48:16.005Z,86.91
2018-01-26T07:48:56.594Z,86.96
2018-01-26T07:49:37.085Z,87.25
2018-01-26T07:50:17.660Z,87.29
2018-01-26T07:50:58.239Z,86.82
2018-01-26T07:51:38.781Z,86.49
2018-01-26T07:52:19.320Z,87.25
2018-01-26T07:53:00.313Z,87.63
2018-01-26T07:53:40.844Z,87.25
2018-01-26T07:54:21.362Z,87.92
2018-01-26T07:55:01.929Z,88.68
2018-01-26T07:55:42.457Z,88.59
2018-01-26T07:56:23.027Z,88.4
2018-01-26T07:57:03.663Z,89.25
2018-01-26T07:57:44.158Z,90.69
2018-01-26T07:58:24.693Z,91.16
2018-01-26T07:59:05.291Z,90.78
2018-01-26T07:59:45.869Z,88.3
2018-01-26T08:00:26.387Z,87.06
2018-01-26T08:01:07.210Z,88.01
2018-01-26T08:01:47.751Z,96.56
2018-01-26T08:02:28.326Z,94.27
2018-01-26T08:03:08.877Z,94.93
2018-01-26T08:03:49.479Z,99.99
2018-01-26T08:04:30.108Z,99.99
2018-01-26T08:05:10.827Z,99.99
2018-01-26T08:05:51.145Z,99.99
2018-01-26T08:06:31.701Z,99.99
2018-01-26T08:07:12.270Z,99.99
2018-01-26T08:07:52.838Z,99.99
2018-01-26T08:08:33.368Z,99.99
2018-01-26T08:09:13.919Z,99.99
2018-01-26T08:09:54.466Z,98.04
2018-01-26T08:10:35.136Z,95.27
2018-01-26T08:11:15.592Z,94.98
2018-01-26T08:11:56.113Z,91.35
2018-01-26T08:12:36.652Z,90.97
2018-01-26T08:13:17.213Z,90.39
2018-01-26T08:13:57.743Z,90.49
2018-01-26T08:14:38.315Z,92.02
2018-01-26T08:15:18.842Z,97.28
2018-01-26T08:15:59.377Z,99.99
2018-01-26T08:16:39.935Z,99.99
2018-01-26T08:17:20.420Z,99.99
2018-01-26T08:18:01.006Z,99.99
2018-01-26T08:18:41.528Z,99.99
2018-01-26T08:19:22.083Z,99.99
2018-01-26T08:20:02.618Z,99.99
2018-01-26T08:20:43.184Z,99.99
2018-01-26T08:21:23.745Z,99.99
2018-01-26T08:22:04.275Z,98.33
2018-01-26T08:22:44.852Z,97.47
2018-01-26T08:23:25.414Z,99.99
2018-01-26T08:24:05.967Z,99.99
2018-01-26T08:24:46.499Z,99.09
2018-01-26T08:25:27.107Z,91.5
2018-01-26T08:26:07.680Z,90.83
2018-01-26T08:26:48.215Z,91.11
2018-01-26T08:27:28.783Z,90.59
2018-01-26T08:28:09.330Z,90.3
2018-01-26T08:28:49.893Z,90.3
2018-01-26T08:29:30.412Z,90.88
2018-01-26T08:30:10.978Z,90.3
2018-01-26T08:30:51.555Z,90.3
2018-01-26T08:31:32.101Z,90.11
2018-01-26T08:32:12.641Z,89.92
2018-01-26T08:32:53.157Z,90.68
2018-01-26T08:33:33.718Z,89.25
2018-01-26T08:34:14.291Z,89.63
2018-01-26T08:34:54.844Z,88.39
2018-01-26T08:35:35.526Z,87.43
2018-01-26T08:36:16.094Z,88.01
2018-01-26T08:36:56.637Z,95.94
2018-01-26T08:37:37.169Z,98.33
2018-01-26T08:38:17.745Z,99.99
2018-01-26T08:38:58.244Z,99.99
2018-01-26T08:39:38.795Z,99.99
2018-01-26T08:40:19.315Z,99.99
2018-01-26T08:40:59.862Z,99.99
2018-01-26T08:41:40.468Z,99.99
2018-01-26T08:42:20.964Z,99.99
2018-01-26T08:43:01.560Z,99.99
2018-01-26T08:43:42.058Z,99.99
2018-01-26T08:44:22.652Z,97.47
2018-01-26T08:45:03.175Z,92.88
2018-01-26T08:45:43.714Z,91.64